Time;durP1;ratioP1;P1;durP2;ratioP2;P2;SDS_P1;SDS_P2;PMS_P1;PMS_P2;Temp;Humidity;BMP_temperature;BMP_pressure;BME280_temperature;BME280_humidity;BME280_pressure;Samples;Min_cycle;Max_cycle;Signal;HPM_P1;HPM_P2
2023/05/23 00:00:05;;;;;;;5.70;5.30;;;23.00;92.80;;;;;;5007145;28;20467;-44
2023/05/23 00:02:32;;;;;;;5.80;5.30;;;23.00;92.90;;;;;;5007264;28;20541;-43
2023/05/23 00:05:02;;;;;;;6.77;6.17;;;23.00;92.80;;;;;;5008524;28;20468;-43
2023/05/23 00:07:28;;;;;;;6.23;5.63;;;22.90;92.80;;;;;;5011939;28;20800;-44
2023/05/23 00:09:55;;;;;;;4.90;4.60;;;22.90;92.70;;;;;;5008153;28;20655;-44
2023/05/23 00:12:22;;;;;;;5.40;4.90;;;22.90;92.70;;;;;;5006848;28;20459;-43
2023/05/23 00:14:49;;;;;;;6.37;5.87;;;22.90;92.80;;;;;;5006306;28;20463;-43
2023/05/23 00:17:17;;;;;;;6.67;6.07;;;22.90;92.70;;;;;;5004071;28;20452;-44
2023/05/23 00:19:44;;;;;;;6.00;5.50;;;22.90;92.70;;;;;;5009818;28;20534;-44
2023/05/23 00:22:11;;;;;;;5.37;4.97;;;22.90;92.70;;;;;;5003011;28;20888;-44
2023/05/23 00:24:38;;;;;;;5.97;5.47;;;22.90;92.70;;;;;;5005781;28;20480;-43
2023/05/23 00:27:05;;;;;;;6.07;5.50;;;22.90;92.70;;;;;;5011593;28;20453;-44
2023/05/23 00:29:31;;;;;;;7.00;6.40;;;22.90;92.60;;;;;;5007187;28;20459;-44
2023/05/23 00:31:58;;;;;;;6.00;5.57;;;22.90;92.70;;;;;;5004841;28;20475;-44
2023/05/23 00:34:26;;;;;;;7.60;5.90;;;22.90;92.60;;;;;;5006969;28;20467;-44
2023/05/23 00:36:53;;;;;;;6.17;5.77;;;22.90;92.60;;;;;;5009776;28;20463;-44
2023/05/23 00:39:19;;;;;;;6.07;5.57;;;22.90;92.60;;;;;;5005985;28;20456;-44
2023/05/23 00:41:47;;;;;;;4.97;4.57;;;22.90;92.60;;;;;;5010542;28;20461;-44
2023/05/23 00:44:14;;;;;;;5.47;5.07;;;22.90;92.60;;;;;;5006197;28;20890;-45
2023/05/23 00:46:42;;;;;;;6.80;6.30;;;22.90;92.60;;;;;;5007445;28;20863;-44
2023/05/23 00:49:09;;;;;;;5.90;5.40;;;22.80;92.50;;;;;;5005677;28;20467;-43
2023/05/23 00:51:37;;;;;;;5.80;5.30;;;22.80;92.50;;;;;;5010092;28;21099;-44
2023/05/23 00:54:05;;;;;;;5.20;4.80;;;22.80;92.50;;;;;;5008567;28;20823;-46
2023/05/23 00:56:32;;;;;;;6.23;5.67;;;22.80;92.50;;;;;;5010038;28;20947;-43
2023/05/23 00:59:00;;;;;;;5.13;4.73;;;22.80;92.50;;;;;;5008573;28;20463;-44
2023/05/23 01:01:27;;;;;;;5.60;5.10;;;22.80;92.50;;;;;;5005660;28;20467;-45
2023/05/23 01:03:54;;;;;;;5.90;5.40;;;22.80;92.50;;;;;;5009482;28;20495;-45
2023/05/23 01:06:20;;;;;;;5.20;4.73;;;22.80;92.50;;;;;;5009716;28;20447;-44
2023/05/23 01:08:48;;;;;;;5.13;4.73;;;22.80;92.50;;;;;;5009844;28;20486;-43
2023/05/23 01:11:32;;;;;;;5.50;5.00;;;22.80;92.50;;;;;;4998536;28;20476;-45
2023/05/23 01:14:04;;;;;;;4.67;4.33;;;22.80;92.60;;;;;;5003659;28;20460;-43
2023/05/23 01:16:38;;;;;;;6.47;5.87;;;22.80;92.50;;;;;;5004121;28;20455;-44
2023/05/23 01:19:31;;;;;;;5.77;5.27;;;22.80;92.60;;;;;;5005917;28;20451;-44
2023/05/23 01:22:01;;;;;;;6.13;5.63;;;22.80;92.60;;;;;;5004312;28;20462;-44
2023/05/23 01:24:39;;;;;;;6.40;5.90;;;22.80;92.50;;;;;;5004653;28;20503;-44
2023/05/23 01:27:15;;;;;;;4.77;4.40;;;22.80;92.60;;;;;;4998902;28;20824;-46
2023/05/23 01:29:46;;;;;;;6.13;5.53;;;22.80;92.50;;;;;;4996497;28;20835;-44
2023/05/23 01:32:15;;;;;;;5.30;4.87;;;22.80;92.50;;;;;;5008727;28;20503;-45
2023/05/23 01:34:43;;;;;;;5.27;4.87;;;22.70;92.40;;;;;;5000205;28;20466;-46
2023/05/23 01:37:10;;;;;;;6.10;5.60;;;22.80;92.50;;;;;;5010213;28;20451;-46
2023/05/23 01:39:37;;;;;;;5.90;5.47;;;22.70;92.40;;;;;;5006113;28;20820;-45
2023/05/23 01:42:05;;;;;;;5.47;5.07;;;22.80;92.50;;;;;;5010020;28;20467;-45
2023/05/23 01:44:32;;;;;;;4.63;4.23;;;22.70;92.50;;;;;;5005741;28;20491;-44
2023/05/23 01:47:02;;;;;;;5.30;4.90;;;22.70;92.50;;;;;;5004023;28;20855;-45
2023/05/23 01:49:30;;;;;;;5.63;5.23;;;22.70;92.40;;;;;;5004456;28;20490;-46
2023/05/23 01:51:58;;;;;;;5.50;5.10;;;22.70;92.50;;;;;;5005975;28;20459;-44
2023/05/23 01:54:25;;;;;;;4.40;4.07;;;22.70;92.50;;;;;;5007363;28;20959;-43
2023/05/23 01:56:52;;;;;;;5.63;5.23;;;22.70;92.40;;;;;;5008334;28;20495;-44
2023/05/23 01:59:18;;;;;;;4.70;4.30;;;22.70;92.40;;;;;;5003824;28;20448;-45
2023/05/23 02:01:45;;;;;;;4.47;4.17;;;22.70;92.40;;;;;;5001421;28;20480;-46
2023/05/23 02:04:13;;;;;;;5.10;4.70;;;22.70;92.40;;;;;;5002770;28;20500;-44
2023/05/23 02:06:40;;;;;;;4.93;4.57;;;22.70;92.40;;;;;;5008975;28;20497;-44
2023/05/23 02:09:07;;;;;;;5.13;4.73;;;22.70;92.40;;;;;;5012325;28;20542;-44
2023/05/23 02:11:33;;;;;;;5.23;4.83;;;22.70;92.40;;;;;;5004728;28;20467;-46
2023/05/23 02:14:01;;;;;;;5.13;4.70;;;22.70;92.40;;;;;;5006445;28;20731;-45
2023/05/23 02:16:28;;;;;;;5.00;4.60;;;22.70;92.50;;;;;;5005928;28;20464;-44
2023/05/23 02:18:55;;;;;;;5.10;4.70;;;22.70;92.40;;;;;;5013243;28;20455;-44
2023/05/23 02:21:23;;;;;;;5.10;4.70;;;22.70;92.40;;;;;;5009041;28;20471;-45
2023/05/23 02:23:49;;;;;;;4.93;4.60;;;22.70;92.40;;;;;;5010401;28;20507;-44
2023/05/23 02:26:16;;;;;;;4.57;4.20;;;22.70;92.40;;;;;;5003969;28;20468;-47
2023/05/23 02:28:43;;;;;;;5.40;4.90;;;22.70;92.40;;;;;;5012344;28;20465;-46
2023/05/23 02:31:10;;;;;;;5.40;4.90;;;22.70;92.40;;;;;;5008257;28;20476;-45
2023/05/23 02:33:37;;;;;;;7.93;5.73;;;22.60;92.40;;;;;;5009346;28;20482;-47
2023/05/23 02:36:04;;;;;;;4.90;4.50;;;22.60;92.40;;;;;;5011751;28;20448;-44
2023/05/23 02:38:32;;;;;;;5.37;4.87;;;22.70;92.40;;;;;;5011779;28;20866;-47
2023/05/23 02:40:59;;;;;;;5.10;4.70;;;22.60;92.30;;;;;;4999588;28;20460;-45
2023/05/23 02:43:26;;;;;;;5.00;4.60;;;22.60;92.40;;;;;;5007265;28;20573;-46
2023/05/23 02:45:52;;;;;;;4.80;4.40;;;22.60;92.30;;;;;;5009348;28;21148;-44
2023/05/23 02:48:20;;;;;;;5.60;5.20;;;22.60;92.30;;;;;;5008753;28;20463;-44
2023/05/23 02:50:46;;;;;;;5.97;5.47;;;22.60;92.30;;;;;;5013760;28;20455;-44
2023/05/23 02:53:13;;;;;;;4.80;4.40;;;22.60;92.40;;;;;;5009901;28;20478;-44
2023/05/23 02:55:41;;;;;;;5.37;4.97;;;22.60;92.30;;;;;;5007760;28;20474;-44
2023/05/23 02:58:08;;;;;;;4.63;4.23;;;22.60;92.30;;;;;;5005958;28;20468;-44
2023/05/23 03:00:35;;;;;;;5.53;5.13;;;22.60;92.30;;;;;;5010142;28;20464;-44
2023/05/23 03:03:02;;;;;;;4.97;4.57;;;22.60;92.40;;;;;;5009442;28;20497;-43
2023/05/23 03:05:29;;;;;;;6.00;5.50;;;22.60;92.40;;;;;;5007713;28;20459;-45
2023/05/23 03:07:56;;;;;;;5.20;4.80;;;22.60;92.30;;;;;;5010219;28;20550;-46
2023/05/23 03:10:23;;;;;;;4.63;4.33;;;22.60;92.30;;;;;;5002611;28;20461;-48
2023/05/23 03:12:51;;;;;;;6.00;5.50;;;22.60;92.30;;;;;;5003357;28;20456;-45
2023/05/23 03:15:18;;;;;;;4.33;4.03;;;22.60;92.40;;;;;;5007865;28;20460;-43
2023/05/23 03:17:44;;;;;;;4.90;4.50;;;22.60;92.40;;;;;;5005203;28;20487;-44
2023/05/23 03:20:11;;;;;;;4.40;4.10;;;22.60;92.40;;;;;;5011702;28;20844;-44
2023/05/23 03:22:38;;;;;;;5.10;4.80;;;22.60;92.30;;;;;;5008156;28;20855;-44
2023/05/23 03:25:06;;;;;;;4.83;4.43;;;22.60;92.40;;;;;;5007781;28;20492;-45
2023/05/23 03:27:33;;;;;;;5.40;5.00;;;22.60;92.30;;;;;;5010240;28;20467;-47
2023/05/23 03:30:01;;;;;;;5.23;4.83;;;22.60;92.40;;;;;;5008080;28;20460;-44
2023/05/23 03:32:27;;;;;;;5.40;5.00;;;22.60;92.30;;;;;;5001898;28;20459;-44
2023/05/23 03:34:55;;;;;;;5.60;5.20;;;22.60;92.40;;;;;;5009351;28;20470;-45
2023/05/23 03:37:21;;;;;;;4.47;4.17;;;22.50;92.30;;;;;;5009612;28;20551;-46
2023/05/23 03:39:48;;;;;;;4.40;4.10;;;22.50;92.30;;;;;;5009403;28;20847;-44
2023/05/23 03:42:15;;;;;;;4.40;4.10;;;22.60;92.30;;;;;;5008636;28;20467;-44
2023/05/23 03:44:41;;;;;;;4.97;4.47;;;22.50;92.30;;;;;;5008428;28;20480;-45
2023/05/23 03:47:09;;;;;;;4.40;4.10;;;22.60;92.40;;;;;;5005944;28;20471;-44
2023/05/23 03:49:36;;;;;;;5.50;5.03;;;22.50;92.30;;;;;;5009842;28;20471;-45
2023/05/23 03:52:03;;;;;;;4.80;4.40;;;22.50;92.30;;;;;;5011118;28;20812;-45
2023/05/23 03:54:29;;;;;;;4.00;3.70;;;22.50;92.30;;;;;;5012391;28;20471;-45
2023/05/23 03:56:56;;;;;;;5.17;4.77;;;22.50;92.30;;;;;;5010482;28;20456;-46
2023/05/23 03:59:23;;;;;;;4.73;4.40;;;22.50;92.40;;;;;;5009021;28;20491;-46
2023/05/23 04:01:49;;;;;;;4.57;4.17;;;22.50;92.40;;;;;;5007207;28;20482;-44
2023/05/23 04:04:19;;;;;;;4.80;4.40;;;22.50;92.70;;;;;;5008329;28;20839;-45
2023/05/23 04:06:46;;;;;;;4.23;3.83;;;22.50;92.30;;;;;;5012288;28;20443;-45
2023/05/23 04:09:13;;;;;;;5.07;4.77;;;22.50;92.30;;;;;;5006347;28;20464;-46
2023/05/23 04:11:40;;;;;;;5.67;5.23;;;22.50;92.40;;;;;;5004562;28;20472;-44
2023/05/23 04:14:07;;;;;;;4.80;4.40;;;22.50;92.30;;;;;;5008230;28;20903;-48
2023/05/23 04:16:34;;;;;;;4.90;4.50;;;22.50;92.40;;;;;;5007519;28;20517;-44
2023/05/23 04:19:03;;;;;;;4.17;3.87;;;22.50;92.30;;;;;;5003250;28;20830;-45
2023/05/23 04:21:31;;;;;;;4.57;4.17;;;22.50;92.40;;;;;;5007705;28;20452;-44
2023/05/23 04:23:57;;;;;;;4.57;4.27;;;22.50;92.30;;;;;;5002380;28;20485;-46
2023/05/23 04:26:24;;;;;;;4.97;4.57;;;22.50;92.30;;;;;;5005790;28;20455;-45
2023/05/23 04:28:53;;;;;;;3.80;3.50;;;22.50;92.30;;;;;;5009878;28;20472;-44
2023/05/23 04:31:21;;;;;;;4.77;4.37;;;22.50;92.30;;;;;;5005597;28;20816;-45
2023/05/23 04:33:47;;;;;;;4.73;4.40;;;22.50;92.30;;;;;;5008942;28;20459;-44
2023/05/23 04:36:14;;;;;;;4.40;4.10;;;22.50;92.40;;;;;;5004909;28;20464;-45
2023/05/23 04:38:42;;;;;;;4.17;3.90;;;22.50;92.40;;;;;;5007487;28;20471;-45
2023/05/23 04:41:10;;;;;;;4.40;4.10;;;22.50;92.40;;;;;;5003481;28;20471;-43
2023/05/23 04:43:41;;;;;;;4.32;4.03;;;22.50;92.40;;;;;;5007209;28;20994;-45
2023/05/23 04:46:08;;;;;;;4.83;4.43;;;22.50;92.40;;;;;;5006679;28;20197;-43
2023/05/23 04:48:36;;;;;;;4.20;3.90;;;22.50;92.30;;;;;;5005433;28;21103;-47
2023/05/23 04:51:06;;;;;;;4.00;3.70;;;22.50;92.50;;;;;;5009248;28;20510;-44
2023/05/23 04:53:33;;;;;;;4.07;3.77;;;22.40;92.30;;;;;;5005074;28;20455;-45
2023/05/23 04:56:01;;;;;;;5.50;5.10;;;22.40;92.30;;;;;;5006837;28;20994;-45
2023/05/23 04:58:28;;;;;;;4.83;4.43;;;22.40;92.40;;;;;;5004347;28;20518;-45
2023/05/23 05:00:55;;;;;;;4.30;3.95;;;22.40;92.30;;;;;;5005834;28;20487;-43
2023/05/23 05:03:23;;;;;;;5.17;4.77;;;22.40;92.30;;;;;;5005797;28;20190;-46
2023/05/23 05:05:50;;;;;;;4.50;4.10;;;22.40;92.30;;;;;;5010148;28;20456;-45
2023/05/23 05:08:18;;;;;;;4.37;4.07;;;22.40;92.30;;;;;;5007520;28;20466;-44
2023/05/23 05:10:45;;;;;;;5.00;4.60;;;22.40;92.30;;;;;;5007984;28;20503;-45
2023/05/23 05:13:13;;;;;;;4.10;3.80;;;22.40;92.40;;;;;;5008852;28;20460;-43
2023/05/23 05:15:40;;;;;;;4.10;3.80;;;22.40;92.30;;;;;;5005188;28;20460;-44
2023/05/23 05:18:06;;;;;;;4.10;3.80;;;22.40;92.30;;;;;;5002709;28;20486;-44
2023/05/23 05:20:33;;;;;;;4.40;4.10;;;22.40;92.40;;;;;;5007915;28;20471;-44
2023/05/23 05:23:00;;;;;;;4.43;4.03;;;22.40;92.40;;;;;;5006829;28;20463;-44
2023/05/23 05:25:30;;;;;;;4.47;4.17;;;22.40;92.40;;;;;;5005736;28;20491;-44
2023/05/23 05:27:57;;;;;;;4.43;4.13;;;22.40;92.30;;;;;;5004930;28;20489;-44
2023/05/23 05:30:25;;;;;;;4.10;3.80;;;22.40;92.30;;;;;;5008338;28;20959;-43
2023/05/23 05:32:52;;;;;;;3.80;3.50;;;22.40;92.30;;;;;;5007791;28;20456;-44
2023/05/23 05:35:18;;;;;;;3.57;3.37;;;22.40;92.30;;;;;;4997892;28;20452;-45
2023/05/23 05:37:45;;;;;;;4.10;3.80;;;22.40;92.30;;;;;;5001750;28;20947;-45
2023/05/23 05:40:12;;;;;;;4.30;4.00;;;22.40;92.30;;;;;;5010616;28;20951;-43
2023/05/23 05:42:39;;;;;;;4.20;3.90;;;22.40;92.30;;;;;;5002619;28;20704;-44
2023/05/23 05:45:07;;;;;;;3.97;3.67;;;22.40;92.30;;;;;;5009329;28;20515;-45
2023/05/23 05:47:35;;;;;;;4.30;4.00;;;22.40;92.20;;;;;;5005825;28;20459;-44
2023/05/23 05:50:02;;;;;;;4.57;4.20;;;22.40;92.20;;;;;;5003694;28;20452;-46
2023/05/23 05:52:29;;;;;;;4.00;3.70;;;22.40;92.30;;;;;;5006110;28;20456;-44
2023/05/23 05:54:56;;;;;;;3.90;3.60;;;22.40;92.30;;;;;;5006651;28;20555;-47
2023/05/23 05:57:23;;;;;;;4.70;4.33;;;22.40;92.20;;;;;;5004242;28;21046;-45
2023/05/23 05:59:49;;;;;;;3.90;3.60;;;22.40;92.30;;;;;;5007904;28;20479;-44
2023/05/23 06:02:16;;;;;;;4.00;3.70;;;22.40;92.30;;;;;;5007523;28;20459;-45
2023/05/23 06:04:44;;;;;;;4.20;3.83;;;22.30;92.20;;;;;;5005918;28;20480;-44
2023/05/23 06:07:11;;;;;;;4.37;4.07;;;22.40;92.20;;;;;;5004737;28;20452;-43
2023/05/23 06:09:37;;;;;;;3.77;3.47;;;22.30;92.20;;;;;;5005481;28;20452;-45
2023/05/23 06:12:04;;;;;;;4.07;3.77;;;22.30;92.10;;;;;;5005665;28;20463;-46
2023/05/23 06:14:31;;;;;;;3.87;3.57;;;22.30;92.20;;;;;;5005430;28;20969;-45
2023/05/23 06:16:58;;;;;;;4.10;3.80;;;22.30;92.10;;;;;;5003523;28;20456;-43
2023/05/23 06:19:25;;;;;;;4.50;3.20;;;22.40;92.20;;;;;;5009830;28;20924;-45
2023/05/23 06:21:53;;;;;;;4.20;3.90;;;22.30;92.10;;;;;;4999890;28;20844;-48
2023/05/23 06:24:19;;;;;;;3.87;3.60;;;22.30;92.10;;;;;;5006780;28;20515;-43
2023/05/23 06:26:46;;;;;;;3.23;3.03;;;22.30;92.10;;;;;;5003678;28;20468;-44
2023/05/23 06:29:13;;;;;;;4.03;3.73;;;22.30;92.10;;;;;;5006492;28;20464;-47
2023/05/23 06:31:40;;;;;;;4.13;3.83;;;22.30;92.10;;;;;;5002148;28;20982;-45
2023/05/23 06:34:06;;;;;;;4.20;3.87;;;22.30;92.10;;;;;;5009225;28;20468;-44
2023/05/23 06:36:33;;;;;;;3.80;3.50;;;22.30;92.00;;;;;;5002627;28;20463;-47
2023/05/23 06:39:01;;;;;;;3.97;3.67;;;22.30;92.10;;;;;;5009400;28;20212;-44
2023/05/23 06:41:28;;;;;;;3.73;3.43;;;22.30;92.10;;;;;;5001493;28;20823;-48
2023/05/23 06:43:54;;;;;;;4.00;3.70;;;22.30;92.10;;;;;;5000053;28;20459;-43
2023/05/23 06:46:21;;;;;;;3.70;3.30;;;22.30;92.10;;;;;;5007854;28;20944;-43
2023/05/23 06:48:48;;;;;;;3.83;3.60;;;22.30;92.20;;;;;;5007614;28;20535;-44
2023/05/23 06:51:14;;;;;;;3.70;3.40;;;22.30;92.50;;;;;;5003856;28;20460;-43
2023/05/23 06:53:41;;;;;;;3.50;3.30;;;22.30;92.10;;;;;;5008541;28;20532;-43
2023/05/23 06:56:09;;;;;;;3.30;3.10;;;22.30;92.10;;;;;;5009212;28;20471;-43
2023/05/23 06:58:35;;;;;;;3.70;3.40;;;22.30;92.20;;;;;;5009820;28;20490;-44
2023/05/23 07:01:02;;;;;;;4.50;4.20;;;22.30;92.10;;;;;;5007089;28;20463;-44
2023/05/23 07:03:29;;;;;;;4.10;3.70;;;22.30;92.10;;;;;;5010192;28;20471;-44
2023/05/23 07:05:55;;;;;;;3.70;3.40;;;22.30;92.10;;;;;;5010389;28;20479;-45
2023/05/23 07:08:22;;;;;;;4.43;4.03;;;22.30;92.10;;;;;;5001593;28;20467;-45
2023/05/23 07:10:49;;;;;;;2.83;2.63;;;22.30;92.10;;;;;;5005828;28;20520;-43
2023/05/23 07:13:17;;;;;;;4.17;3.87;;;22.30;92.20;;;;;;5010314;28;20451;-45
2023/05/23 07:15:43;;;;;;;4.00;3.70;;;22.30;92.20;;;;;;4997796;28;20851;-44
2023/05/23 07:18:10;;;;;;;4.10;3.70;;;22.30;92.20;;;;;;5007966;28;20456;-44
2023/05/23 07:20:37;;;;;;;4.20;3.80;;;22.30;92.20;;;;;;5008318;28;21108;-43
2023/05/23 07:23:03;;;;;;;3.77;3.47;;;22.30;92.30;;;;;;5004925;28;20457;-44
2023/05/23 07:25:30;;;;;;;8.20;3.70;;;22.30;92.20;;;;;;5006802;28;20487;-43
2023/05/23 07:27:57;;;;;;;3.70;3.40;;;22.30;92.20;;;;;;5007815;28;20462;-46
2023/05/23 07:30:25;;;;;;;10.75;3.67;;;22.30;92.30;;;;;;5005248;28;20455;-46
2023/05/23 07:32:52;;;;;;;3.63;3.38;;;22.30;92.20;;;;;;5009451;28;20216;-44
2023/05/23 07:35:22;;;;;;;4.03;3.73;;;22.30;92.20;;;;;;5011148;28;20196;-44
2023/05/23 07:37:49;;;;;;;2.93;2.73;;;22.30;92.20;;;;;;5005096;28;20466;-47
2023/05/23 07:40:16;;;;;;;4.63;3.93;;;22.30;92.20;;;;;;5010424;28;20464;-45
2023/05/23 07:42:42;;;;;;;6.20;3.63;;;22.30;92.20;;;;;;5003127;28;20448;-42
2023/05/23 07:45:10;;;;;;;3.97;3.67;;;22.30;92.40;;;;;;5010718;28;20492;-43
2023/05/23 07:47:38;;;;;;;4.57;3.63;;;22.30;92.20;;;;;;5009104;28;20538;-43
2023/05/23 07:50:05;;;;;;;6.18;2.67;;;22.30;92.30;;;;;;5007563;28;20451;-43
2023/05/23 07:52:32;;;;;;;3.57;3.27;;;22.30;92.30;;;;;;5011633;28;20197;-43
2023/05/23 07:54:59;;;;;;;4.03;3.72;;;22.30;92.20;;;;;;5007027;28;21131;-44
2023/05/23 07:57:26;;;;;;;3.20;3.00;;;22.30;92.20;;;;;;5009751;28;20204;-43
2023/05/23 07:59:54;;;;;;;3.17;2.97;;;22.30;92.50;;;;;;5007818;28;20482;-44
2023/05/23 08:02:20;;;;;;;3.80;2.70;;;22.30;92.20;;;;;;5004964;28;20461;-43
2023/05/23 08:04:48;;;;;;;3.77;3.27;;;22.30;92.20;;;;;;5008509;28;20479;-43
2023/05/23 08:07:15;;;;;;;3.87;3.50;;;22.30;92.10;;;;;;5000955;28;20457;-43
2023/05/23 08:09:42;;;;;;;4.63;3.35;;;22.30;92.10;;;;;;5005338;28;20904;-44
2023/05/23 08:12:09;;;;;;;4.07;3.67;;;22.30;92.00;;;;;;5008200;28;20201;-43
2023/05/23 08:14:36;;;;;;;4.07;3.00;;;22.30;92.10;;;;;;5005882;28;20209;-42
2023/05/23 08:17:03;;;;;;;4.03;3.10;;;22.30;92.10;;;;;;4998717;28;21021;-43
2023/05/23 08:19:29;;;;;;;3.57;3.27;;;22.30;92.10;;;;;;5007834;28;20483;-42
2023/05/23 08:21:57;;;;;;;3.13;2.93;;;22.20;92.10;;;;;;5009633;28;20471;-43
2023/05/23 08:24:24;;;;;;;7.33;3.17;;;22.30;92.10;;;;;;5008278;28;20484;-44
2023/05/23 08:26:51;;;;;;;4.20;3.40;;;22.30;92.10;;;;;;5005503;28;20479;-43
2023/05/23 08:29:18;;;;;;;3.60;3.30;;;22.30;92.10;;;;;;5007976;28;20827;-45
2023/05/23 08:31:44;;;;;;;3.83;3.53;;;22.30;92.10;;;;;;5007066;28;20959;-42
2023/05/23 08:34:11;;;;;;;2.67;2.47;;;22.20;92.10;;;;;;5009139;28;20479;-42
2023/05/23 08:36:38;;;;;;;6.05;3.55;;;22.30;92.10;;;;;;5004575;28;20451;-42
2023/05/23 08:39:06;;;;;;;3.97;3.57;;;22.20;92.10;;;;;;5005358;28;20296;-42
2023/05/23 08:41:34;;;;;;;2.90;2.70;;;22.20;92.10;;;;;;5009737;28;20475;-42
2023/05/23 08:44:01;;;;;;;3.80;2.97;;;22.20;92.00;;;;;;5008556;28;20467;-44
2023/05/23 08:46:29;;;;;;;3.60;3.25;;;22.20;92.10;;;;;;5001463;28;20492;-45
2023/05/23 08:48:59;;;;;;;3.22;2.97;;;22.20;92.00;;;;;;5008226;28;20201;-45
2023/05/23 08:51:27;;;;;;;3.47;3.17;;;22.20;92.00;;;;;;5007743;28;20203;-44
2023/05/23 08:53:55;;;;;;;3.60;3.30;;;22.30;92.10;;;;;;5005512;28;20464;-44
2023/05/23 08:56:24;;;;;;;3.00;2.70;;;22.20;92.00;;;;;;5004252;28;20460;-44
2023/05/23 08:58:53;;;;;;;5.10;3.83;;;22.20;92.00;;;;;;5003845;28;20487;-45
2023/05/23 09:01:21;;;;;;;3.00;2.80;;;22.20;92.00;;;;;;5006941;28;20201;-44
2023/05/23 09:03:49;;;;;;;3.00;2.80;;;22.20;92.00;;;;;;5007090;28;20467;-44
2023/05/23 09:06:17;;;;;;;3.30;2.77;;;22.20;92.00;;;;;;5004470;28;20578;-47
2023/05/23 09:08:45;;;;;;;3.10;2.87;;;22.20;92.00;;;;;;5000649;28;20455;-44
2023/05/23 09:11:13;;;;;;;3.53;3.23;;;22.20;91.90;;;;;;5009255;28;20471;-45
2023/05/23 09:13:41;;;;;;;2.97;2.60;;;22.20;91.80;;;;;;4996034;28;20487;-52
2023/05/23 09:16:11;;;;;;;3.55;3.30;;;22.20;91.30;;;;;;5000442;28;20463;-50
2023/05/23 09:18:39;;;;;;;4.70;2.73;;;22.20;91.20;;;;;;5006064;28;20232;-51
2023/05/23 09:21:07;;;;;;;3.10;2.80;;;22.20;91.20;;;;;;5006175;28;20456;-53
2023/05/23 09:23:35;;;;;;;3.75;3.15;;;22.20;91.10;;;;;;5005692;28;20467;-53
2023/05/23 09:26:03;;;;;;;3.43;3.13;;;22.20;91.00;;;;;;5002791;28;20584;-53
2023/05/23 09:28:30;;;;;;;4.00;3.33;;;22.20;90.80;;;;;;5005561;28;20916;-49
2023/05/23 09:31:02;;;;;;;6.50;3.00;;;22.20;90.80;;;;;;5003075;28;20472;-50
2023/05/23 09:33:40;;;;;;;9.47;3.17;;;22.20;90.70;;;;;;5001846;28;20952;-52
2023/05/23 09:36:07;;;;;;;3.20;2.70;;;22.20;90.80;;;;;;5006097;28;20464;-49
2023/05/23 09:38:38;;;;;;;3.17;2.97;;;22.20;90.70;;;;;;5005527;28;20451;-51
2023/05/23 09:41:05;;;;;;;3.63;2.80;;;22.20;90.60;;;;;;5008560;28;20467;-54
2023/05/23 09:43:31;;;;;;;4.90;3.10;;;22.20;90.60;;;;;;5007618;28;20996;-53
2023/05/23 09:46:07;;;;;;;13.43;3.60;;;22.20;90.50;;;;;;5005328;28;20491;-53
2023/05/23 09:48:34;;;;;;;5.07;3.60;;;22.20;90.40;;;;;;5005249;28;20470;-56
2023/05/23 09:51:04;;;;;;;4.20;3.17;;;22.20;90.40;;;;;;5005173;28;20807;-55
2023/05/23 09:53:30;;;;;;;6.63;4.00;;;22.20;90.30;;;;;;5009012;28;20462;-51
2023/05/23 09:55:59;;;;;;;4.80;3.80;;;22.20;90.10;;;;;;5003153;28;20475;-55
2023/05/23 09:58:27;;;;;;;4.67;3.67;;;22.30;90.20;;;;;;5010413;28;21234;-56
2023/05/23 10:00:57;;;;;;;8.43;2.80;;;22.30;90.30;;;;;;4992903;28;20443;-56
2023/05/23 10:03:31;;;;;;;5.97;3.47;;;22.30;90.20;;;;;;5005885;28;20452;-56
2023/05/23 10:06:04;;;;;;;9.20;3.10;;;22.40;90.30;;;;;;5008630;28;20792;-52
2023/05/23 10:08:36;;;;;;;4.00;3.00;;;22.40;90.20;;;;;;4996814;28;20460;-53
2023/05/23 10:11:45;;;;;;;5.10;3.00;;;22.40;90.00;;;;;;4998633;28;20693;-50
2023/05/23 10:14:12;;;;;;;6.00;2.80;;;22.40;89.00;;;;;;5004107;28;20456;-52
2023/05/23 10:16:45;;;;;;;7.00;3.60;;;22.50;89.00;;;;;;5003101;28;20467;-53
2023/05/23 10:19:21;;;;;;;4.57;2.90;;;22.50;89.20;;;;;;5005191;28;20897;-54
2023/05/23 10:21:53;;;;;;;3.50;2.80;;;22.50;88.30;;;;;;5001070;28;20455;-50
2023/05/23 10:24:24;;;;;;;4.07;3.10;;;22.50;88.60;;;;;;5003062;28;20488;-52
2023/05/23 10:26:52;;;;;;;3.20;2.90;;;22.60;88.50;;;;;;4997580;28;21420;-52
2023/05/23 10:29:18;;;;;;;4.40;3.30;;;22.60;88.40;;;;;;5004926;28;20459;-46
2023/05/23 10:31:46;;;;;;;4.77;3.57;;;22.60;88.40;;;;;;5007723;28;20463;-53
2023/05/23 10:34:23;;;;;;;5.07;3.60;;;22.70;88.40;;;;;;5010793;28;20475;-51
2023/05/23 10:36:57;;;;;;;4.30;2.77;;;22.70;88.60;;;;;;5006882;28;20467;-52
2023/05/23 10:39:34;;;;;;;7.90;4.20;;;22.70;89.10;;;;;;5012202;28;20965;-47
2023/05/23 10:42:07;;;;;;;4.27;2.97;;;22.80;88.80;;;;;;5002915;28;20529;-52
2023/05/23 10:44:33;;;;;;;5.87;3.37;;;22.80;88.50;;;;;;5008152;28;20451;-48
2023/05/23 10:47:03;;;;;;;4.80;3.20;;;22.80;87.70;;;;;;5006982;28;20475;-47
2023/05/23 10:49:43;;;;;;;4.30;3.10;;;22.80;87.60;;;;;;5009445;28;20451;-46
2023/05/23 10:52:11;;;;;;;6.47;4.03;;;22.80;87.60;;;;;;5010336;28;20453;-48
2023/05/23 10:54:43;;;;;;;5.83;3.20;;;22.80;88.20;;;;;;5009034;28;20451;-51
2023/05/23 10:57:12;;;;;;;3.43;3.07;;;22.80;88.10;;;;;;5008610;28;20916;-50
2023/05/23 10:59:39;;;;;;;4.27;3.30;;;22.90;88.50;;;;;;5010564;28;20479;-49
2023/05/23 11:02:12;;;;;;;4.50;3.70;;;22.90;88.00;;;;;;5003150;28;20451;-54
2023/05/23 11:04:40;;;;;;;3.70;2.93;;;22.90;87.50;;;;;;5005458;28;20451;-54
2023/05/23 11:07:30;;;;;;;3.57;2.90;;;22.90;87.00;;;;;;4997995;28;20484;-48
2023/05/23 11:10:04;;;;;;;2.80;2.60;;;23.00;86.50;;;;;;5004943;28;20549;-48
2023/05/23 11:12:39;;;;;;;5.60;3.37;;;23.00;87.40;;;;;;5008791;28;20481;-51
2023/05/23 11:15:20;;;;;;;4.53;2.80;;;23.00;86.80;;;;;;5004278;28;20541;-56
2023/05/23 11:17:51;;;;;;;4.93;3.27;;;23.00;86.60;;;;;;5006529;28;20515;-58
2023/05/23 11:20:22;;;;;;;6.13;3.30;;;23.00;86.00;;;;;;5010262;28;20451;-56
2023/05/23 11:22:54;;;;;;;3.77;2.80;;;23.00;85.50;;;;;;5008958;28;20951;-55
2023/05/23 11:25:38;;;;;;;5.87;3.27;;;23.00;85.70;;;;;;5009340;28;20456;-48
2023/05/23 11:28:06;;;;;;;5.53;2.87;;;23.10;84.90;;;;;;5008814;28;20459;-53
2023/05/23 11:30:33;;;;;;;6.23;3.00;;;23.10;85.30;;;;;;4992408;28;20710;-56
2023/05/23 11:33:00;;;;;;;3.70;2.73;;;23.10;84.50;;;;;;5000971;28;20488;-51
2023/05/23 11:35:30;;;;;;;5.80;3.33;;;23.10;84.00;;;;;;5002908;28;20464;-50
2023/05/23 11:37:57;;;;;;;5.73;2.83;;;23.10;84.10;;;;;;4999313;28;20463;-53
2023/05/23 11:40:31;;;;;;;5.70;3.60;;;23.10;84.50;;;;;;5005063;28;20455;-48
2023/05/23 11:42:59;;;;;;;9.07;2.73;;;23.10;83.60;;;;;;5005044;28;20581;-48
2023/05/23 11:45:27;;;;;;;10.10;3.27;;;23.10;83.40;;;;;;5003215;28;20483;-53
2023/05/23 11:47:53;;;;;;;5.13;2.83;;;23.10;82.80;;;;;;5007250;28;20464;-55
2023/05/23 11:50:20;;;;;;;8.30;3.00;;;23.10;83.10;;;;;;5011435;28;20558;-55
2023/05/23 11:52:51;;;;;;;4.10;2.73;;;23.20;83.60;;;;;;5004363;28;20464;-54
2023/05/23 11:55:18;;;;;;;5.40;3.07;;;23.20;83.30;;;;;;4998972;28;20504;-56
2023/05/23 11:57:45;;;;;;;9.03;3.63;;;23.20;82.60;;;;;;4997474;28;20539;-49
2023/05/23 12:00:13;;;;;;;3.87;2.57;;;23.20;82.40;;;;;;5004673;28;20487;-50
2023/05/23 12:02:40;;;;;;;5.00;2.50;;;23.20;82.40;;;;;;5007765;28;21054;-55
2023/05/23 12:05:08;;;;;;;3.83;2.40;;;23.20;81.80;;;;;;5011501;28;20440;-55
2023/05/23 12:07:36;;;;;;;3.87;2.80;;;23.20;82.10;;;;;;5005453;28;20475;-55
2023/05/23 12:10:08;;;;;;;5.43;2.83;;;23.20;81.40;;;;;;5003285;28;20538;-52
2023/05/23 12:12:34;;;;;;;6.03;3.57;;;23.20;80.90;;;;;;5002513;28;20464;-55
2023/05/23 12:15:01;;;;;;;4.10;3.03;;;23.20;80.70;;;;;;5001749;28;20480;-50
2023/05/23 12:17:28;;;;;;;4.70;2.80;;;23.20;80.90;;;;;;4999725;28;20467;-53
2023/05/23 12:19:55;;;;;;;5.20;3.33;;;23.20;80.90;;;;;;5007221;28;20829;-53
2023/05/23 12:22:25;;;;;;;5.90;2.77;;;23.20;80.80;;;;;;5001346;28;20464;-49
2023/05/23 12:24:54;;;;;;;4.80;2.27;;;23.30;80.10;;;;;;5003153;28;20884;-48
2023/05/23 12:27:28;;;;;;;6.30;2.90;;;23.30;79.70;;;;;;5004260;28;20479;-53
2023/05/23 12:30:05;;;;;;;6.23;2.60;;;23.30;79.50;;;;;;5012173;28;20443;-49
2023/05/23 12:32:32;;;;;;;5.97;2.90;;;23.30;80.00;;;;;;5007989;28;20677;-50
2023/05/23 12:34:59;;;;;;;3.97;2.37;;;23.30;80.60;;;;;;5010859;28;20551;-50
2023/05/23 12:37:26;;;;;;;4.67;3.10;;;23.30;79.60;;;;;;5007722;28;20460;-49
2023/05/23 12:39:53;;;;;;;5.43;2.80;;;23.30;78.20;;;;;;5009762;28;20464;-51
2023/05/23 12:42:21;;;;;;;5.03;2.50;;;23.30;79.90;;;;;;5007197;28;20959;-50
2023/05/23 12:44:51;;;;;;;6.83;2.80;;;23.30;78.80;;;;;;5011080;28;20454;-48
2023/05/23 12:47:18;;;;;;;5.60;2.90;;;23.30;79.70;;;;;;5005712;28;20575;-50
2023/05/23 12:49:45;;;;;;;5.23;2.73;;;23.30;78.70;;;;;;5006239;28;20471;-48